Time;durP1;ratioP1;P1;durP2;ratioP2;P2;SDS_P1;SDS_P2;PMS_P1;PMS_P2;Temp;Humidity;BMP_temperature;BMP_pressure;BME280_temperature;BME280_humidity;BME280_pressure;Samples;Min_cycle;Max_cycle;Signal;HPM_P1;HPM_P2
2022/03/10 00:01:09;;;;;;;;;;;10.60;99.90;;;;;;5053952;28;19924;-77
2022/03/10 00:03:35;;;;;;;;;;;10.60;99.90;;;;;;5053913;28;19909;-77
2022/03/10 00:06:00;;;;;;;;;;;10.60;99.90;;;;;;5053646;28;20325;-77
2022/03/10 00:08:26;;;;;;;;;;;10.60;99.90;;;;;;5054104;28;19913;-78
2022/03/10 00:10:52;;;;;;;;;;;10.60;99.90;;;;;;5053856;28;20460;-78
2022/03/10 00:13:17;;;;;;;;;;;10.60;99.90;;;;;;5053574;28;19915;-78
2022/03/10 00:15:43;;;;;;;;;;;10.60;99.90;;;;;;5053659;28;19909;-77
2022/03/10 00:18:08;;;;;;;;;;;10.50;99.90;;;;;;5053591;28;19916;-78
2022/03/10 00:20:34;;;;;;;;;;;10.50;99.90;;;;;;5053564;28;19909;-78
2022/03/10 00:23:00;;;;;;;;;;;10.50;99.90;;;;;;5053405;28;19912;-77
2022/03/10 00:25:25;;;;;;;;;;;10.50;99.90;;;;;;5053643;28;19920;-77
2022/03/10 00:27:51;;;;;;;;;;;10.60;99.90;;;;;;5052225;28;19909;-77
2022/03/10 00:30:17;;;;;;;;;;;10.60;99.90;;;;;;5054057;28;19913;-77
2022/03/10 00:32:43;;;;;;;;;;;10.60;99.90;;;;;;5058016;28;20026;-77
2022/03/10 00:35:09;;;;;;;;;;;10.60;99.90;;;;;;5057511;28;19916;-77
2022/03/10 00:37:35;;;;;;;;;;;10.60;99.90;;;;;;5057431;28;19925;-78
2022/03/10 00:40:01;;;;;;;;;;;10.60;99.90;;;;;;5057504;28;19915;-78
2022/03/10 00:42:26;;;;;;;;;;;10.60;99.90;;;;;;5057366;28;19916;-77
2022/03/10 00:44:52;;;;;;;;;;;10.60;99.90;;;;;;5057431;28;19916;-77
2022/03/10 00:47:19;;;;;;;;;;;10.60;99.90;;;;;;5057466;28;19959;-77
2022/03/10 00:49:44;;;;;;;;;;;10.70;99.90;;;;;;5057429;28;20369;-77
2022/03/10 00:52:10;;;;;;;;;;;10.70;99.90;;;;;;5057229;28;19909;-77
2022/03/10 00:54:35;;;;;;;;;;;10.70;99.90;;;;;;5055865;28;20349;-77
2022/03/10 00:57:01;;;;;;;;;;;10.70;99.90;;;;;;5057513;28;20436;-78
2022/03/10 00:59:27;;;;;;;;;;;10.70;99.90;;;;;;5057061;28;19920;-77
2022/03/10 01:01:52;;;;;;;;;;;10.70;99.90;;;;;;5056970;28;19951;-78
2022/03/10 01:04:18;;;;;;;;;;;10.70;99.90;;;;;;5056982;28;19909;-78
2022/03/10 01:06:43;;;;;;;;;;;10.60;99.90;;;;;;5056959;28;20265;-78
2022/03/10 01:09:09;;;;;;;;;;;10.70;99.90;;;;;;5056879;28;20421;-77
2022/03/10 01:11:35;;;;;;;;;;;10.80;99.90;;;;;;5056916;28;19908;-78
2022/03/10 01:14:00;;;;;;;;;;;10.70;99.90;;;;;;5056869;28;19909;-78
2022/03/10 01:16:26;;;;;;;;;;;10.70;99.90;;;;;;5056963;28;19948;-78
2022/03/10 01:18:52;;;;;;;;;;;10.70;99.90;;;;;;5056884;28;19963;-78
2022/03/10 01:21:17;;;;;;;;;;;10.80;99.90;;;;;;5056685;28;19958;-78
2022/03/10 01:23:43;;;;;;;;;;;10.70;99.90;;;;;;5056670;28;19916;-77
2022/03/10 01:26:08;;;;;;;;;;;10.70;99.90;;;;;;5055312;28;19909;-77
2022/03/10 01:28:34;;;;;;;;;;;10.80;99.90;;;;;;5056542;28;19909;-78
2022/03/10 01:30:59;;;;;;;;;;;10.80;99.90;;;;;;5056611;28;19909;-78
2022/03/10 01:33:25;;;;;;;;;;;10.80;99.90;;;;;;5056462;28;19913;-78
2022/03/10 01:35:51;;;;;;;;;;;10.70;99.90;;;;;;5055068;28;20285;-78
2022/03/10 01:38:16;;;;;;;;;;;10.70;99.90;;;;;;5056180;28;19925;-78
2022/03/10 01:40:44;;;;;;;;;;;10.70;99.90;;;;;;5056350;28;19996;-78
2022/03/10 01:43:09;;;;;;;;;;;10.70;99.90;;;;;;5055686;28;19912;-78
2022/03/10 01:45:35;;;;;;;;;;;10.70;99.90;;;;;;5056166;28;19915;-78
2022/03/10 01:48:01;;;;;;;;;;;10.70;99.90;;;;;;5056148;28;19912;-78
2022/03/10 01:50:27;;;;;;;;;;;10.70;99.90;;;;;;5054825;28;19912;-78
2022/03/10 01:52:52;;;;;;;;;;;10.70;99.90;;;;;;5056065;28;19916;-78
2022/03/10 01:55:19;;;;;;;;;;;10.70;99.90;;;;;;5055937;28;19908;-78
2022/03/10 01:57:45;;;;;;;;;;;10.70;99.90;;;;;;5056539;28;19915;-78
2022/03/10 02:00:11;;;;;;;;;;;10.70;99.90;;;;;;5054686;28;19974;-78
2022/03/10 02:02:37;;;;;;;;;;;10.70;99.90;;;;;;5055842;28;20020;-78
2022/03/10 02:05:03;;;;;;;;;;;10.70;99.90;;;;;;5055897;28;19940;-78
2022/03/10 02:10:18;;;;;;;;;;;10.70;99.90;;;;;;5055646;28;19916;-78
2022/03/10 02:12:44;;;;;;;;;;;10.70;99.90;;;;;;5055861;28;19963;-78
2022/03/10 02:18:02;;;;;;;;;;;10.70;99.90;;;;;;5055526;28;20402;-78
2022/03/10 02:20:27;;;;;;;;;;;10.80;99.90;;;;;;5055706;28;19995;-78
2022/03/10 02:22:53;;;;;;;;;;;10.80;99.90;;;;;;5055499;28;19913;-78
2022/03/10 02:25:20;;;;;;;;;;;10.80;99.90;;;;;;5055516;28;19909;-78
2022/03/10 02:27:50;;;;;;;;;;;10.80;99.90;;;;;;5055680;28;19962;-78
2022/03/10 02:30:15;;;;;;;;;;;10.80;99.90;;;;;;5055698;28;19944;-78
2022/03/10 02:32:41;;;;;;;;;;;10.80;99.90;;;;;;5055353;28;19909;-78
2022/03/10 02:35:06;;;;;;;;;;;10.80;99.90;;;;;;5055288;28;19913;-78
2022/03/10 02:37:32;;;;;;;;;;;10.70;99.90;;;;;;5055391;28;19921;-78
2022/03/10 02:39:58;;;;;;;;;;;10.70;99.90;;;;;;5055186;28;20311;-78
2022/03/10 02:42:23;;;;;;;;;;;10.80;99.90;;;;;;5055203;28;19920;-78
2022/03/10 02:44:49;;;;;;;;;;;10.80;99.90;;;;;;5055147;28;20388;-78
2022/03/10 02:47:15;;;;;;;;;;;10.80;99.90;;;;;;5053729;28;19916;-78
2022/03/10 02:49:41;;;;;;;;;;;10.80;99.90;;;;;;5054988;28;19915;-78
2022/03/10 02:52:07;;;;;;;;;;;10.80;99.90;;;;;;5055347;28;20369;-78
2022/03/10 02:54:32;;;;;;;;;;;10.80;99.90;;;;;;5052573;28;19908;-78
2022/03/10 02:56:58;;;;;;;;;;;10.90;99.90;;;;;;5053585;28;19908;-78
2022/03/10 02:59:24;;;;;;;;;;;10.90;99.90;;;;;;5054815;28;19908;-78
2022/03/10 03:01:50;;;;;;;;;;;11.00;99.90;;;;;;5054693;28;19919;-78
2022/03/10 03:04:16;;;;;;;;;;;11.00;99.90;;;;;;5054911;28;20368;-78
2022/03/10 03:06:41;;;;;;;;;;;11.00;99.90;;;;;;5054727;28;19909;-78
2022/03/10 03:09:07;;;;;;;;;;;10.90;99.90;;;;;;5054639;28;19913;-78
2022/03/10 03:11:33;;;;;;;;;;;11.00;99.90;;;;;;5054566;28;19909;-78
2022/03/10 03:13:59;;;;;;;;;;;11.00;99.90;;;;;;5054522;28;20281;-78
2022/03/10 03:16:25;;;;;;;;;;;11.00;99.90;;;;;;5054475;28;19915;-78
2022/03/10 03:18:51;;;;;;;;;;;11.00;99.90;;;;;;5053106;28;19991;-78
2022/03/10 03:21:17;;;;;;;;;;;11.00;99.90;;;;;;5054324;28;19927;-78
2022/03/10 03:23:43;;;;;;;;;;;11.00;99.90;;;;;;5053023;28;19959;-78
2022/03/10 03:26:08;;;;;;;;;;;10.90;99.90;;;;;;5054437;28;20337;-78
2022/03/10 03:28:34;;;;;;;;;;;10.90;99.90;;;;;;5054392;28;20379;-78
2022/03/10 03:31:00;;;;;;;;;;;10.90;99.90;;;;;;5054265;28;19909;-78
2022/03/10 03:33:26;;;;;;;;;;;10.80;99.90;;;;;;5054237;28;19963;-78
2022/03/10 03:35:51;;;;;;;;;;;10.80;99.90;;;;;;5052906;28;19909;-78
2022/03/10 03:38:17;;;;;;;;;;;10.80;99.90;;;;;;5053947;28;20457;-78
2022/03/10 03:40:42;;;;;;;;;;;10.80;99.90;;;;;;5054054;28;19913;-78
2022/03/10 03:43:08;;;;;;;;;;;10.80;99.90;;;;;;5053987;28;19913;-78
2022/03/10 03:45:34;;;;;;;;;;;10.90;99.90;;;;;;5052735;28;19916;-78
2022/03/10 03:47:59;;;;;;;;;;;10.80;99.90;;;;;;5053983;28;20365;-78
2022/03/10 03:50:25;;;;;;;;;;;10.90;99.90;;;;;;5054105;28;19934;-78
2022/03/10 03:52:50;;;;;;;;;;;10.90;99.90;;;;;;5053846;28;19931;-78
2022/03/10 03:55:16;;;;;;;;;;;11.00;99.90;;;;;;5053788;28;19916;-78
2022/03/10 03:57:41;;;;;;;;;;;11.00;99.90;;;;;;5054250;28;19909;-78
2022/03/10 04:00:08;;;;;;;;;;;11.00;99.90;;;;;;5052433;28;19913;-78
2022/03/10 04:02:34;;;;;;;;;;;11.00;99.90;;;;;;5053792;28;19928;-78
2022/03/10 04:04:59;;;;;;;;;;;11.10;99.90;;;;;;5053567;28;19908;-78
2022/03/10 04:07:25;;;;;;;;;;;11.10;99.90;;;;;;5053614;28;20380;-78
2022/03/10 04:09:50;;;;;;;;;;;11.00;99.90;;;;;;5053673;28;19970;-78
2022/03/10 04:12:16;;;;;;;;;;;11.00;99.90;;;;;;5053629;28;20258;-78
2022/03/10 04:14:42;;;;;;;;;;;11.10;99.90;;;;;;5053713;28;19909;-78
2022/03/10 04:17:07;;;;;;;;;;;11.00;99.90;;;;;;5053742;28;20288;-78
2022/03/10 04:19:33;;;;;;;;;;;11.00;99.90;;;;;;5053567;28;19909;-78
2022/03/10 04:21:59;;;;;;;;;;;11.00;99.90;;;;;;5052212;28;19912;-78
2022/03/10 04:24:24;;;;;;;;;;;11.00;99.90;;;;;;5053835;28;19987;-78
2022/03/10 04:26:50;;;;;;;;;;;10.90;99.90;;;;;;5053519;28;19956;-78
2022/03/10 04:29:15;;;;;;;;;;;10.90;99.90;;;;;;5053485;28;19912;-78
2022/03/10 04:31:42;;;;;;;;;;;11.00;99.90;;;;;;5053896;28;19913;-78
2022/03/10 04:34:08;;;;;;;;;;;11.00;99.90;;;;;;5053620;28;19917;-78
2022/03/10 04:36:34;;;;;;;;;;;10.90;99.90;;;;;;5053435;28;19909;-78
2022/03/10 04:38:59;;;;;;;;;;;10.90;99.90;;;;;;5053235;28;19927;-78
2022/03/10 04:41:25;;;;;;;;;;;10.90;99.90;;;;;;5053301;28;20333;-78
2022/03/10 04:43:50;;;;;;;;;;;11.00;99.90;;;;;;5053821;28;19909;-78
2022/03/10 04:46:16;;;;;;;;;;;11.00;99.90;;;;;;5053340;28;20001;-78
2022/03/10 04:48:42;;;;;;;;;;;11.00;99.90;;;;;;5052311;28;20353;-78
2022/03/10 04:51:08;;;;;;;;;;;11.00;99.90;;;;;;5051972;28;20373;-78
2022/03/10 04:53:34;;;;;;;;;;;11.00;99.90;;;;;;5053223;28;19909;-78
2022/03/10 04:55:59;;;;;;;;;;;11.10;99.90;;;;;;5053221;28;19909;-78
2022/03/10 04:58:25;;;;;;;;;;;11.10;99.90;;;;;;5053272;28;19916;-78
2022/03/10 05:00:50;;;;;;;;;;;11.10;99.90;;;;;;5053460;28;19944;-78
2022/03/10 05:03:16;;;;;;;;;;;11.00;99.90;;;;;;5053275;28;19917;-78
2022/03/10 05:05:42;;;;;;;;;;;11.00;99.90;;;;;;5053151;28;19909;-78
2022/03/10 05:08:07;;;;;;;;;;;11.00;99.90;;;;;;5053581;28;20434;-78
2022/03/10 05:10:33;;;;;;;;;;;11.10;99.90;;;;;;5052088;28;19908;-78
2022/03/10 05:13:01;;;;;;;;;;;11.10;99.90;;;;;;5053075;28;19909;-78
2022/03/10 05:15:30;;;;;;;;;;;11.10;99.90;;;;;;5051611;28;19948;-78
2022/03/10 05:17:56;;;;;;;;;;;11.10;99.90;;;;;;5052802;28;20008;-78
2022/03/10 05:20:24;;;;;;;;;;;11.10;99.90;;;;;;5055436;28;19940;-78
2022/03/10 05:22:50;;;;;;;;;;;11.10;99.90;;;;;;5056649;28;19921;-78
2022/03/10 05:25:16;;;;;;;;;;;11.10;99.90;;;;;;5055361;28;19909;-78
2022/03/10 05:27:43;;;;;;;;;;;11.20;99.90;;;;;;5056837;28;20273;-78
2022/03/10 05:30:09;;;;;;;;;;;11.20;99.90;;;;;;5056712;28;19996;-78
2022/03/10 05:32:35;;;;;;;;;;;11.20;99.90;;;;;;5055185;28;19955;-78
2022/03/10 05:35:01;;;;;;;;;;;11.20;99.90;;;;;;5056452;28;19916;-78
2022/03/10 05:37:27;;;;;;;;;;;11.20;99.90;;;;;;5056172;28;20015;-78
2022/03/10 05:39:53;;;;;;;;;;;11.20;99.90;;;;;;5056332;28;20381;-78
2022/03/10 05:42:18;;;;;;;;;;;11.20;99.90;;;;;;5056360;28;19919;-78
2022/03/10 05:44:44;;;;;;;;;;;11.10;99.90;;;;;;5056286;28;20308;-78
2022/03/10 05:47:10;;;;;;;;;;;11.10;99.90;;;;;;5056186;28;19916;-78
2022/03/10 05:49:36;;;;;;;;;;;11.00;99.90;;;;;;5056378;28;20323;-78
2022/03/10 05:52:02;;;;;;;;;;;11.00;99.90;;;;;;5056414;28;19909;-78
2022/03/10 05:54:27;;;;;;;;;;;11.00;99.90;;;;;;5056136;28;19958;-78
2022/03/10 05:56:53;;;;;;;;;;;11.00;99.90;;;;;;5056038;28;19909;-78
2022/03/10 05:59:19;;;;;;;;;;;11.00;99.90;;;;;;5056401;28;20361;-78
2022/03/10 06:01:45;;;;;;;;;;;10.90;99.90;;;;;;5054600;28;20335;-78
2022/03/10 06:04:11;;;;;;;;;;;10.90;99.90;;;;;;5055895;28;19995;-78
2022/03/10 06:06:36;;;;;;;;;;;10.90;99.90;;;;;;5055876;28;19948;-78
2022/03/10 06:09:02;;;;;;;;;;;11.00;99.90;;;;;;5056311;28;20371;-78
2022/03/10 06:11:28;;;;;;;;;;;10.90;99.90;;;;;;5055752;28;19997;-78
2022/03/10 06:13:54;;;;;;;;;;;10.80;99.90;;;;;;5055764;28;19909;-78
2022/03/10 06:16:20;;;;;;;;;;;10.80;99.90;;;;;;5055733;28;19916;-78
2022/03/10 06:18:45;;;;;;;;;;;10.80;99.90;;;;;;5054325;28;20281;-78
2022/03/10 06:21:11;;;;;;;;;;;10.80;99.90;;;;;;5055871;28;19913;-78
2022/03/10 06:23:36;;;;;;;;;;;10.80;99.90;;;;;;5055787;28;19920;-78
2022/03/10 06:26:02;;;;;;;;;;;10.60;99.90;;;;;;5055498;28;20333;-78
2022/03/10 06:28:29;;;;;;;;;;;10.60;99.90;;;;;;5055521;28;19944;-78
2022/03/10 06:30:55;;;;;;;;;;;10.60;99.90;;;;;;5055582;28;19995;-78
2022/03/10 06:33:21;;;;;;;;;;;10.60;99.90;;;;;;5055396;28;20329;-78
2022/03/10 06:35:47;;;;;;;;;;;10.60;99.90;;;;;;5055308;28;19971;-78
2022/03/10 06:38:12;;;;;;;;;;;10.70;99.90;;;;;;5055047;28;19928;-78
2022/03/10 06:40:38;;;;;;;;;;;10.60;99.90;;;;;;5055694;28;19916;-78
2022/03/10 06:43:04;;;;;;;;;;;10.70;99.90;;;;;;5055087;28;19962;-78
2022/03/10 06:45:29;;;;;;;;;;;10.70;99.90;;;;;;5055208;28;20380;-78
2022/03/10 06:47:55;;;;;;;;;;;10.70;99.90;;;;;;5055113;28;19909;-78
2022/03/10 06:50:21;;;;;;;;;;;10.60;99.90;;;;;;5053643;28;19913;-78
2022/03/10 06:52:47;;;;;;;;;;;10.60;99.90;;;;;;5053680;28;19909;-78
2022/03/10 06:55:13;;;;;;;;;;;10.70;99.90;;;;;;5053540;28;19916;-78
2022/03/10 06:57:38;;;;;;;;;;;10.70;99.90;;;;;;5053489;28;19908;-78
2022/03/10 07:00:05;;;;;;;;;;;10.70;99.90;;;;;;5054667;28;19916;-78
2022/03/10 07:02:30;;;;;;;;;;;10.60;99.90;;;;;;5054840;28;20402;-78
2022/03/10 07:04:56;;;;;;;;;;;10.60;99.90;;;;;;5054764;28;20011;-78
2022/03/10 07:07:22;;;;;;;;;;;10.60;99.90;;;;;;5054828;28;20439;-78
2022/03/10 07:09:47;;;;;;;;;;;10.70;99.90;;;;;;5055232;28;19920;-78
2022/03/10 07:12:13;;;;;;;;;;;10.70;99.90;;;;;;5054561;28;19978;-78
2022/03/10 07:14:38;;;;;;;;;;;10.60;99.90;;;;;;5054634;28;19909;-78
2022/03/10 07:17:04;;;;;;;;;;;10.70;99.90;;;;;;5054584;28;20384;-78
2022/03/10 07:19:30;;;;;;;;;;;10.70;99.90;;;;;;5053207;28;19909;-78
2022/03/10 07:21:55;;;;;;;;;;;10.70;99.90;;;;;;5054585;28;19913;-78
2022/03/10 07:24:21;;;;;;;;;;;10.70;99.90;;;;;;5053096;28;19915;-78
2022/03/10 07:26:46;;;;;;;;;;;10.60;99.90;;;;;;5054259;28;20361;-78
2022/03/10 07:29:12;;;;;;;;;;;10.60;99.90;;;;;;5054218;28;19908;-78
2022/03/10 07:31:37;;;;;;;;;;;10.60;99.90;;;;;;5054221;28;19912;-78
2022/03/10 07:34:03;;;;;;;;;;;10.50;99.90;;;;;;5054303;28;19909;-78
2022/03/10 07:36:29;;;;;;;;;;;10.50;99.90;;;;;;5054125;28;19909;-78
2022/03/10 07:38:54;;;;;;;;;;;10.50;99.90;;;;;;5053684;28;19928;-78
2022/03/10 07:41:20;;;;;;;;;;;10.50;99.90;;;;;;5053480;28;19909;-78
2022/03/10 07:43:45;;;;;;;;;;;10.40;99.90;;;;;;5054022;28;19908;-78
2022/03/10 07:46:11;;;;;;;;;;;10.60;99.90;;;;;;5054034;28;20376;-78
2022/03/10 07:48:37;;;;;;;;;;;10.50;99.90;;;;;;5054333;28;19920;-78
2022/03/10 07:51:02;;;;;;;;;;;10.50;99.90;;;;;;5053951;28;19932;-78
2022/03/10 07:53:28;;;;;;;;;;;10.50;99.90;;;;;;5053947;28;20372;-78
2022/03/10 07:55:56;;;;;;;;;;;10.60;99.90;;;;;;5053870;28;20003;-78
2022/03/10 07:58:23;;;;;;;;;;;10.60;99.90;;;;;;5052541;28;19958;-78
2022/03/10 08:00:49;;;;;;;;;;;10.70;99.90;;;;;;5053858;28;19962;-78
2022/03/10 08:03:15;;;;;;;;;;;10.80;99.90;;;;;;5054028;28;19913;-78
2022/03/10 08:05:41;;;;;;;;;;;10.80;99.90;;;;;;5053768;28;19909;-78
2022/03/10 08:08:06;;;;;;;;;;;10.90;99.90;;;;;;5054080;28;20297;-78
2022/03/10 08:10:32;;;;;;;;;;;10.90;99.90;;;;;;5053827;28;19963;-78
2022/03/10 08:12:57;;;;;;;;;;;10.90;99.90;;;;;;5053824;28;20011;-78
2022/03/10 08:15:25;;;;;;;;;;;10.90;99.90;;;;;;5052352;28;19909;-78
2022/03/10 08:17:51;;;;;;;;;;;11.10;99.90;;;;;;5053614;28;20395;-78
2022/03/10 08:20:16;;;;;;;;;;;11.00;99.90;;;;;;5053992;28;19909;-78
2022/03/10 08:22:42;;;;;;;;;;;11.10;99.90;;;;;;5053533;28;19916;-78
2022/03/10 08:25:08;;;;;;;;;;;11.10;99.90;;;;;;5053766;28;19999;-78
2022/03/10 08:27:33;;;;;;;;;;;11.10;99.90;;;;;;5053582;28;19955;-78
2022/03/10 08:29:59;;;;;;;;;;;11.10;99.90;;;;;;5053495;28;20350;-78
2022/03/10 08:32:25;;;;;;;;;;;11.10;99.90;;;;;;5053509;28;20007;-78
2022/03/10 08:34:51;;;;;;;;;;;11.10;99.90;;;;;;5053481;28;19916;-78
2022/03/10 08:37:18;;;;;;;;;;;11.10;99.90;;;;;;5051962;28;20373;-78
2022/03/10 08:39:44;;;;;;;;;;;11.00;99.90;;;;;;5053483;28;19916;-78
2022/03/10 08:42:10;;;;;;;;;;;11.00;99.90;;;;;;5053524;28;19913;-78
2022/03/10 08:44:35;;;;;;;;;;;10.80;99.90;;;;;;5053566;28;20383;-78
2022/03/10 08:47:01;;;;;;;;;;;10.60;99.90;;;;;;5053336;28;19909;-78
2022/03/10 08:49:26;;;;;;;;;;;10.80;99.90;;;;;;5053333;28;19913;-78
2022/03/10 08:51:52;;;;;;;;;;;11.20;99.90;;;;;;5053296;28;19960;-78
2022/03/10 08:54:18;;;;;;;;;;;11.40;99.90;;;;;;5056635;28;19913;-78
2022/03/10 08:56:43;;;;;;;;;;;11.60;99.90;;;;;;5057194;28;19955;-78
2022/03/10 08:59:09;;;;;;;;;;;11.80;99.90;;;;;;5057342;28;19959;-78
2022/03/10 09:01:35;;;;;;;;;;;11.90;99.90;;;;;;5057017;28;20011;-78
2022/03/10 09:04:00;;;;;;;;;;;11.70;99.90;;;;;;5057260;28;19912;-78
2022/03/10 09:06:26;;;;;;;;;;;11.60;99.90;;;;;;5055734;28;19996;-78
2022/03/10 09:08:52;;;;;;;;;;;11.50;99.90;;;;;;5055686;28;19923;-78
2022/03/10 09:11:17;;;;;;;;;;;11.30;99.90;;;;;;5056970;28;20327;-78
2022/03/10 09:13:48;;;;;;;;;;;11.30;99.90;;;;;;5056903;28;19916;-79
2022/03/10 09:16:18;;;;;;;;;;;11.20;99.90;;;;;;5057024;28;19908;-78
2022/03/10 09:18:45;;;;;;;;;;;11.20;99.90;;;;;;5056923;28;19909;-78
2022/03/10 09:21:11;;;;;;;;;;;11.30;99.90;;;;;;5056708;28;19913;-78
2022/03/10 09:23:36;;;;;;;;;;;11.30;99.90;;;;;;5055436;28;19967;-78
2022/03/10 09:26:02;;;;;;;;;;;11.10;99.90;;;;;;5056627;28;20412;-78
2022/03/10 09:28:28;;;;;;;;;;;11.10;99.90;;;;;;5056564;28;19951;-78
2022/03/10 09:30:53;;;;;;;;;;;11.00;99.90;;;;;;5056537;28;20039;-78
2022/03/10 09:33:19;;;;;;;;;;;11.00;99.90;;;;;;5056807;28;19916;-78
2022/03/10 09:35:45;;;;;;;;;;;11.00;99.90;;;;;;5056459;28;19909;-78
2022/03/10 09:38:10;;;;;;;;;;;11.10;99.90;;;;;;5056302;28;19921;-78
2022/03/10 09:40:36;;;;;;;;;;;11.00;99.90;;;;;;5055068;28;19915;-78
2022/03/10 09:43:01;;;;;;;;;;;11.00;99.90;;;;;;5056255;28;19913;-78
2022/03/10 09:45:29;;;;;;;;;;;11.00;99.90;;;;;;5056328;28;20274;-78
2022/03/10 09:47:55;;;;;;;;;;;11.00;99.90;;;;;;5056497;28;19916;-78
2022/03/10 09:50:21;;;;;;;;;;;10.90;99.90;;;;;;5056135;28;19909;-78
2022/03/10 09:52:47;;;;;;;;;;;11.00;99.90;;;;;;5056182;28;20374;-78
2022/03/10 09:55:13;;;;;;;;;;;11.10;99.90;;;;;;5056129;28;19912;-78
2022/03/10 09:57:42;;;;;;;;;;;11.00;99.90;;;;;;5056085;28;20299;-78
2022/03/10 10:00:10;;;;;;;;;;;11.10;99.90;;;;;;5054677;28;19912;-78
2022/03/10 10:02:37;;;;;;;;;;;10.90;99.90;;;;;;5055890;28;19913;-78
2022/03/10 10:05:17;;;;;;;;;;;10.80;99.90;;;;;;5055606;28;19955;-78
2022/03/10 10:07:58;;;;;;;;;;;11.00;99.90;;;;;;5055877;28;19951;-78
2022/03/10 10:10:28;;;;;;;;;;;11.10;99.90;;;;;;5056025;28;19915;-78
2022/03/10 10:12:53;;;;;;;;;;;11.30;99.90;;;;;;5054487;28;20367;-78
2022/03/10 10:15:19;;;;;;;;;;;11.40;99.90;;;;;;5055856;28;19909;-78
2022/03/10 10:17:45;;;;;;;;;;;11.30;99.90;;;;;;5055898;28;19954;-78
2022/03/10 10:20:10;;;;;;;;;;;11.20;99.90;;;;;;5055945;28;19916;-78
2022/03/10 10:22:36;;;;;;;;;;;11.10;99.90;;;;;;5055593;28;19920;-78
2022/03/10 10:25:02;;;;;;;;;;;11.20;99.90;;;;;;5055581;28;19915;-78
2022/03/10 10:27:32;;;;;;;;;;;11.00;99.90;;;;;;5055512;28;19913;-78
2022/03/10 10:30:00;;;;;;;;;;;10.70;99.90;;;;;;5055584;28;19913;-78
2022/03/10 10:32:46;;;;;;;;;;;10.80;99.90;;;;;;5055564;28;19952;-78
2022/03/10 10:35:13;;;;;;;;;;;10.80;99.90;;;;;;5055216;28;19916;-78
2022/03/10 10:37:39;;;;;;;;;;;11.00;99.90;;;;;;5055285;28;19921;-78
2022/03/10 10:40:06;;;;;;;;;;;10.90;99.90;;;;;;5055276;28;19913;-78
2022/03/10 10:42:33;;;;;;;;;;;10.90;99.90;;;;;;5055080;28;19935;-79
2022/03/10 10:44:59;;;;;;;;;;;10.80;99.90;;;;;;5055197;28;19909;-78
2022/03/10 10:47:26;;;;;;;;;;;10.80;99.90;;;;;;5053767;28;19918;-78
2022/03/10 10:50:04;;;;;;;;;;;10.80;99.90;;;;;;5053778;28;19975;-78
2022/03/10 10:52:36;;;;;;;;;;;10.80;99.90;;;;;;5055196;28;19908;-78
2022/03/10 10:55:09;;;;;;;;;;;10.90;99.90;;;;;;5054897;28;19909;-78
2022/03/10 10:57:35;;;;;;;;;;;11.20;99.90;;;;;;5055304;28;19908;-78
2022/03/10 11:00:09;;;;;;;;;;;11.00;99.90;;;;;;5054858;28;19916;-78
2022/03/10 11:02:35;;;;;;;;;;;11.00;99.90;;;;;;5054951;28;19913;-78
2022/03/10 11:05:01;;;;;;;;;;;11.20;99.90;;;;;;5054747;28;19909;-78
2022/03/10 11:07:26;;;;;;;;;;;11.30;99.90;;;;;;5054753;28;19909;-78
2022/03/10 11:09:52;;;;;;;;;;;11.30;99.90;;;;;;5054638;28;19909;-78
2022/03/10 11:12:18;;;;;;;;;;;11.40;99.90;;;;;;5054742;28;20281;-79
2022/03/10 11:14:44;;;;;;;;;;;11.20;99.90;;;;;;5054187;28;19909;-78
2022/03/10 11:17:12;;;;;;;;;;;11.40;99.90;;;;;;5054201;28;19909;-79
2022/03/10 11:19:41;;;;;;;;;;;11.50;99.90;;;;;;5054452;28;19919;-79
2022/03/10 11:22:25;;;;;;;;;;;11.50;99.90;;;;;;5054553;28;20003;-78
2022/03/10 11:24:51;;;;;;;;;;;11.50;99.90;;;;;;5054563;28;19909;-78
2022/03/10 11:27:18;;;;;;;;;;;11.40;99.90;;;;;;5054440;28;19967;-79
2022/03/10 11:29:48;;;;;;;;;;;11.20;99.90;;;;;;5052987;28;19916;-78
2022/03/10 11:32:14;;;;;;;;;;;11.40;99.90;;;;;;5054629;28;19948;-78
2022/03/10 11:34:43;;;;;;;;;;;11.90;99.90;;;;;;5054280;28;19948;-78
2022/03/10 11:37:09;;;;;;;;;;;11.90;99.90;;;;;;5054036;28;20373;-78
2022/03/10 11:39:52;;;;;;;;;;;12.30;99.90;;;;;;5054179;28;20000;-78
2022/03/10 11:42:28;;;;;;;;;;;12.50;99.90;;;;;;5054266;28;20023;-79
2022/03/10 11:45:06;;;;;;;;;;;13.10;99.90;;;;;;5054309;28;20370;-79
2022/03/10 11:47:32;;;;;;;;;;;13.80;99.90;;;;;;5054030;28;19955;-79
2022/03/10 11:49:57;;;;;;;;;;;14.60;99.90;;;;;;5054122;28;19920;-79
2022/03/10 11:52:24;;;;;;;;;;;14.90;99.90;;;;;;5053970;28;19913;-79
2022/03/10 11:55:05;;;;;;;;;;;14.20;99.90;;;;;;5053858;28;20025;-79
2022/03/10 11:57:41;;;;;;;;;;;13.80;99.90;;;;;;5054031;28;20395;-78
2022/03/10 12:00:07;;;;;;;;;;;14.00;99.90;;;;;;5052316;28;19909;-79
2022/03/10 12:02:38;;;;;;;;;;;13.50;99.90;;;;;;5053804;28;19920;-78
2022/03/10 12:05:05;;;;;;;;;;;13.20;99.90;;;;;;5054324;28;19967;-79
2022/03/10 12:07:31;;;;;;;;;;;13.70;99.90;;;;;;5053757;28;19908;-78
2022/03/10 12:10:15;;;;;;;;;;;13.80;99.90;;;;;;5053755;28;20288;-78
2022/03/10 12:12:42;;;;;;;;;;;13.70;99.90;;;;;;5053716;28;19909;-79
2022/03/10 12:15:30;;;;;;;;;;;14.20;99.90;;;;;;5053647;28;19919;-79
2022/03/10 12:17:56;;;;;;;;;;;14.80;99.90;;;;;;5052342;28;19908;-79
2022/03/10 12:20:23;;;;;;;;;;;16.30;99.90;;;;;;5053697;28;20425;-79
2022/03/10 12:23:03;;;;;;;;;;;18.10;99.90;;;;;;5053454;28;19919;-79
2022/03/10 12:25:48;;;;;;;;;;;18.00;99.90;;;;;;5053560;28;19908;-79
2022/03/10 12:28:24;;;;;;;;;;;18.50;99.90;;;;;;5057286;28;19909;-79
2022/03/10 12:30:52;;;;;;;;;;;18.80;99.90;;;;;;5057723;28;19958;-79
2022/03/10 12:33:18;;;;;;;;;;;21.00;99.90;;;;;;5057781;28;20406;-79
2022/03/10 12:35:44;;;;;;;;;;;23.10;94.50;;;;;;5057868;28;19916;-80
2022/03/10 12:38:09;;;;;;;;;;;25.40;91.80;;;;;;5056091;28;19921;-78
2022/03/10 12:40:36;;;;;;;;;;;28.00;79.30;;;;;;5057540;28;20258;-78
2022/03/10 12:43:06;;;;;;;;;;;26.40;74.20;;;;;;5057391;28;19913;-77
2022/03/10 12:45:32;;;;;;;;;;;23.90;76.60;;;;;;5057390;28;19909;-77
2022/03/10 12:48:03;;;;;;;;;;;21.60;81.60;;;;;;5057578;28;19920;-78
2022/03/10 12:50:31;;;;;;;;;;;20.60;87.00;;;;;;5057598;28;19940;-77
2022/03/10 12:52:56;;;;;;;;;;;20.10;89.80;;;;;;5057296;28;20419;-77
2022/03/10 12:55:26;;;;;;;;;;;19.00;92.40;;;;;;5057204;28;19913;-77
2022/03/10 12:57:58;;;;;;;;;;;17.80;95.10;;;;;;5057163;28;19909;-77
2022/03/10 13:00:24;;;;;;;;;;;17.20;98.80;;;;;;5057251;28;20320;-76
2022/03/10 13:02:54;;;;;;;;;;;17.60;98.60;;;;;;5057109;28;19916;-77
2022/03/10 13:05:20;;;;;;;;;;;17.20;98.00;;;;;;5057453;28;19959;-77
2022/03/10 13:07:46;;;;;;;;;;;17.00;99.90;;;;;;5057186;28;19908;-76
2022/03/10 13:10:13;;;;;;;;;;;16.40;99.80;;;;;;5056945;28;19915;-77
2022/03/10 13:12:39;;;;;;;;;;;16.00;99.90;;;;;;5057064;28;20441;-76
2022/03/10 13:15:06;;;;;;;;;;;16.20;99.90;;;;;;5056835;28;19913;-77
2022/03/10 13:17:32;;;;;;;;;;;16.70;99.90;;;;;;5056989;28;19916;-76
2022/03/10 13:19:58;;;;;;;;;;;16.60;99.90;;;;;;5056795;28;19913;-77
2022/03/10 13:22:24;;;;;;;;;;;16.00;99.90;;;;;;5056682;28;19913;-79
2022/03/10 13:24:52;;;;;;;;;;;15.80;99.90;;;;;;5055436;28;19915;-79
2022/03/10 13:27:21;;;;;;;;;;;15.80;99.90;;;;;;5055371;28;20000;-79
2022/03/10 13:29:47;;;;;;;;;;;15.70;99.90;;;;;;5056599;28;20411;-79
2022/03/10 13:32:16;;;;;;;;;;;15.90;99.90;;;;;;5056683;28;19910;-79
2022/03/10 13:34:42;;;;;;;;;;;16.10;99.90;;;;;;5056517;28;19952;-79
2022/03/10 13:37:09;;;;;;;;;;;17.30;99.90;;;;;;5056324;28;20296;-79
2022/03/10 13:39:36;;;;;;;;;;;19.30;98.70;;;;;;5055796;28;20410;-79
2022/03/10 13:42:03;;;;;;;;;;;19.30;97.20;;;;;;5056497;28;19913;-79
2022/03/10 13:44:28;;;;;;;;;;;19.30;96.60;;;;;;5056285;28;19909;-79
2022/03/10 13:47:07;;;;;;;;;;;20.60;95.80;;;;;;5056301;28;19909;-79
2022/03/10 13:49:43;;;;;;;;;;;19.60;95.80;;;;;;5056224;28;19916;-80
2022/03/10 13:52:15;;;;;;;;;;;24.90;87.30;;;;;;5056364;28;19909;-78
2022/03/10 13:54:50;;;;;;;;;;;27.30;78.20;;;;;;5056079;28;20288;-78
2022/03/10 13:57:16;;;;;;;;;;;27.70;69.60;;;;;;5056086;28;20331;-77
2022/03/10 13:59:45;;;;;;;;;;;23.10;73.20;;;;;;5056101;28;19909;-77
2022/03/10 14:02:23;;;;;;;;;;;22.00;77.70;;;;;;5055986;28;20078;-76
2022/03/10 14:04:49;;;;;;;;;;;20.90;80.80;;;;;;5054709;28;19952;-77
2022/03/10 14:07:15;;;;;;;;;;;19.70;86.60;;;;;;5055927;28;19923;-76
2022/03/10 14:09:41;;;;;;;;;;;21.50;81.70;;;;;;5055879;28;19909;-78
2022/03/10 14:12:27;;;;;;;;;;;23.60;76.50;;;;;;5055847;28;19916;-77
2022/03/10 14:14:54;;;;;;;;;;;21.80;78.10;;;;;;5055419;28;19913;-77
2022/03/10 14:17:20;;;;;;;;;;;20.00;80.40;;;;;;5054423;28;19909;-77
2022/03/10 14:19:46;;;;;;;;;;;19.00;85.10;;;;;;5055752;28;19915;-77